Time;durP1;ratioP1;P1;durP2;ratioP2;P2;SDS_P1;SDS_P2;PMS_P1;PMS_P2;Temp;Humidity;BMP_temperature;BMP_pressure;BME280_temperature;BME280_humidity;BME280_pressure;Samples;Min_cycle;Max_cycle;Signal;HPM_P1;HPM_P2
2023/10/18 00:01:26;;;;;;;0.52;0.52;;;;;;;26.53;38.81;99064.94;7397672;19;20018;-54
2023/10/18 00:03:58;;;;;;;0.30;0.13;;;;;;;26.43;38.97;99067.81;7401172;19;20006;-54
2023/10/18 00:06:26;;;;;;;0.10;0.10;;;;;;;27.30;38.05;99048.19;7396811;19;20003;-54
2023/10/18 00:08:58;;;;;;;0.15;0.10;;;;;;;26.93;38.77;99062.09;7396347;19;20027;-54
2023/10/18 00:11:25;;;;;;;0.32;0.32;;;;;;;28.03;37.33;99060.31;7394906;19;20018;-54
2023/10/18 00:13:53;;;;;;;2.03;0.47;;;;;;;28.21;37.29;99055.03;7397673;19;20022;-54
2023/10/18 00:16:22;;;;;;;1.05;0.85;;;;;;;28.83;36.53;99035.34;7396744;19;20011;-54
2023/10/18 00:18:48;;;;;;;3.40;0.50;;;;;;;28.44;36.96;99037.91;7399309;19;20018;-54
2023/10/18 00:21:15;;;;;;;0.55;0.55;;;;;;;28.08;37.25;99030.59;7400185;19;20010;-54
2023/10/18 00:23:44;;;;;;;0.35;0.35;;;;;;;28.50;36.78;99036.16;7398692;19;20839;-54
2023/10/18 00:26:11;;;;;;;0.10;0.10;;;;;;;28.27;37.15;99030.41;7398244;19;20010;-54
2023/10/18 00:28:38;;;;;;;0.15;0.10;;;;;;;27.98;37.78;99035.66;7396227;19;20015;-54
2023/10/18 00:31:12;;;;;;;1.33;1.23;;;;;;;28.04;37.51;99016.03;7394479;19;20007;-54
2023/10/18 00:33:39;;;;;;;0.20;0.20;;;;;;;27.95;37.64;99025.44;7397257;19;20026;-54
2023/10/18 00:36:08;;;;;;;1.17;0.63;;;;;;;27.85;37.71;99007.59;7395795;19;20070;-54
2023/10/18 00:38:38;;;;;;;0.50;0.20;;;;;;;27.63;38.17;99014.72;7393314;19;20029;-54
2023/10/18 00:41:08;;;;;;;0.50;0.32;;;;;;;27.99;37.72;99011.41;7393939;19;20466;-55
2023/10/18 00:43:36;;;;;;;2.75;0.43;;;;;;;29.10;36.70;99006.91;7395667;19;20074;-54
2023/10/18 00:46:06;;;;;;;0.30;0.30;;;;;;;28.44;37.10;99000.66;7394428;19;20014;-54
2023/10/18 00:48:33;;;;;;;1.20;0.57;;;;;;;29.62;35.94;98992.84;7394427;19;20017;-54
2023/10/18 00:51:00;;;;;;;4.28;1.05;;;;;;;30.10;35.11;98999.88;7392327;19;20013;-54
2023/10/18 00:53:30;;;;;;;0.10;0.10;;;;;;;29.19;35.82;99003.19;7396416;19;20011;-54
2023/10/18 00:56:01;;;;;;;0.43;0.43;;;;;;;28.56;36.88;98986.34;7395292;19;20010;-52
2023/10/18 00:58:30;;;;;;;0.43;0.30;;;;;;;28.41;37.25;98996.91;7394906;19;20562;-54
2023/10/18 01:00:57;;;;;;;1.05;0.45;;;;;;;27.66;38.17;99004.91;7394423;19;20018;-54
2023/10/18 01:03:31;;;;;;;0.20;0.20;;;;;;;28.51;36.97;98993.94;7398978;19;20021;-55
2023/10/18 01:06:22;;;;;;;1.17;0.90;;;;;;;27.46;38.10;98995.72;7395947;19;20015;-54
2023/10/18 01:08:49;;;;;;;1.50;1.03;;;;;;;27.53;38.52;98989.03;7394861;19;20379;-54
2023/10/18 01:11:23;;;;;;;0.30;0.30;;;;;;;27.18;38.78;98987.34;7391977;19;20252;-53
2023/10/18 01:13:49;;;;;;;0.65;0.65;;;;;;;28.03;38.10;98980.16;7398892;19;20010;-54
2023/10/18 01:16:36;;;;;;;1.65;0.38;;;;;;;27.39;38.50;98981.66;7395549;19;20017;-54
2023/10/18 01:19:06;;;;;;;1.23;0.70;;;;;;;27.76;38.32;98974.09;7394717;19;20011;-55
2023/10/18 01:21:33;;;;;;;5.50;1.87;;;;;;;27.74;38.51;98968.25;7395029;19;20023;-56
2023/10/18 01:24:00;;;;;;;0.63;0.47;;;;;;;27.72;38.37;98968.84;7397811;19;20031;-62
2023/10/18 01:26:28;;;;;;;0.75;0.75;;;;;;;26.95;39.17;98967.94;7393667;19;20015;-61
2023/10/18 01:28:56;;;;;;;0.45;0.45;;;;;;;26.52;40.01;98961.38;7395694;19;20050;-62
2023/10/18 01:31:24;;;;;;;0.77;0.77;;;;;;;26.63;39.71;98955.00;7391621;19;20046;-62
2023/10/18 01:33:51;;;;;;;0.40;0.40;;;;;;;26.74;40.10;98937.25;7398293;19;20070;-62
2023/10/18 01:36:21;;;;;;;0.32;0.28;;;;;;;28.32;38.03;98931.16;7392944;19;20454;-60
2023/10/18 01:38:57;;;;;;;1.08;1.00;;;;;;;27.31;39.05;98941.06;7394290;19;20078;-54
2023/10/18 01:41:25;;;;;;;0.20;0.20;;;;;;;27.09;39.51;98925.28;7393466;19;20010;-54
2023/10/18 01:46:37;;;;;;;0.10;0.10;;;;;;;28.26;37.97;98933.66;7394947;19;20014;-61
2023/10/18 01:49:06;;;;;;;1.92;1.20;;;;;;;27.62;38.50;98930.25;7392262;19;20021;-54
2023/10/18 01:51:48;;;;;;;1.05;0.82;;;;;;;27.23;39.15;98929.06;7394754;19;20018;-54
2023/10/18 01:54:32;;;;;;;0.50;0.50;;;;;;;26.67;40.06;98923.84;7394981;19;20034;-60
2023/10/18 01:59:47;;;;;;;0.55;0.55;;;;;;;28.42;37.86;98903.88;7395721;19;20089;-55
2023/10/18 02:02:15;;;;;;;2.92;0.95;;;;;;;28.53;37.56;98916.72;7395116;19;20011;-62
2023/10/18 02:04:45;;;;;;;0.43;0.43;;;;;;;28.46;37.58;98912.72;7398599;19;20021;-62
2023/10/18 02:07:17;;;;;;;17.27;1.23;;;;;;;28.79;36.95;98903.25;7394669;19;20070;-62
2023/10/18 02:12:27;;;;;;;0.80;0.80;;;;;;;29.03;36.78;98901.81;7394951;19;20013;-62
2023/10/18 02:14:56;;;;;;;0.22;0.22;;;;;;;28.65;36.93;98882.34;7396105;19;20014;-62
2023/10/18 02:17:22;;;;;;;2.15;1.27;;;;;;;28.14;37.63;98884.97;7396702;19;20019;-61
2023/10/18 02:19:48;;;;;;;0.65;0.65;;;;;;;27.76;37.94;98882.53;7393173;19;20013;-61
2023/10/18 02:22:16;;;;;;;1.02;0.77;;;;;;;27.59;38.62;98874.28;7391731;19;20010;-62
2023/10/18 02:24:45;;;;;;;0.80;0.80;;;;;;;28.68;37.46;98872.47;7396536;19;20086;-62
2023/10/18 02:27:19;;;;;;;0.65;0.40;;;;;;;28.67;37.21;98879.59;7393751;19;20031;-62
2023/10/18 02:29:46;;;;;;;0.50;0.28;;;;;;;28.51;37.27;98867.88;7392711;19;20394;-62
2023/10/18 02:34:57;;;;;;;0.73;0.73;;;;;;;29.33;36.35;98857.72;7398873;19;20002;-63
2023/10/18 02:37:25;;;;;;;0.22;0.22;;;;;;;28.43;37.67;98845.25;7394320;19;20011;-62
2023/10/18 02:39:52;;;;;;;1.02;0.85;;;;;;;26.65;39.51;98835.16;7395009;19;20011;-62
2023/10/18 02:42:19;;;;;;;0.90;0.73;;;;;;;28.27;37.86;98837.75;7394005;19;20015;-62
2023/10/18 02:44:45;;;;;;;0.55;0.55;;;;;;;26.45;39.97;98825.22;7396156;19;20019;-62
2023/10/18 02:47:22;;;;;;;0.45;0.45;;;;;;;26.48;40.23;98823.25;7391910;19;20124;-61
2023/10/18 02:49:51;;;;;;;0.93;0.55;;;;;;;26.91;39.75;98822.66;7393303;19;20398;-62
2023/10/18 02:52:18;;;;;;;0.75;0.55;;;;;;;27.25;39.36;98818.44;7392458;19;20423;-62
2023/10/18 02:54:45;;;;;;;0.85;0.85;;;;;;;26.66;40.00;98805.22;7392012;19;20042;-61
2023/10/18 02:57:13;;;;;;;0.55;0.55;;;;;;;26.63;40.27;98812.19;7392717;19;20015;-61
2023/10/18 02:59:43;;;;;;;1.70;0.98;;;;;;;26.30;40.34;98802.78;7390546;19;20053;-62
2023/10/18 03:02:13;;;;;;;0.80;0.60;;;;;;;26.10;41.31;98804.25;7394008;19;20027;-62
2023/10/18 03:04:42;;;;;;;0.55;0.55;;;;;;;27.34;39.31;98808.25;7399171;19;20026;-62
2023/10/18 03:07:13;;;;;;;0.93;0.38;;;;;;;26.19;40.75;98794.88;7397962;19;20028;-61
2023/10/18 03:09:39;;;;;;;0.90;0.90;;;;;;;28.27;38.60;98789.84;7399699;19;20015;-62
2023/10/18 03:12:15;;;;;;;0.47;0.40;;;;;;;28.50;38.20;98789.78;7396437;19;20463;-61
2023/10/18 03:14:53;;;;;;;0.55;0.45;;;;;;;27.53;39.13;98776.63;7398636;19;20018;-61
2023/10/18 03:17:23;;;;;;;2.10;1.58;;;;;;;25.83;40.91;98775.22;7402512;19;20113;-62
2023/10/18 03:19:50;;;;;;;0.73;0.73;;;;;;;25.59;41.84;98782.84;7398636;19;20015;-62
2023/10/18 03:22:21;;;;;;;0.90;0.88;;;;;;;26.09;40.96;98782.78;7396882;19;20025;-62
2023/10/18 03:24:53;;;;;;;1.80;1.63;;;;;;;26.36;40.78;98771.06;7397525;19;20010;-62
2023/10/18 03:27:20;;;;;;;0.10;0.10;;;;;;;26.68;39.86;98764.66;7402481;19;20014;-62
2023/10/18 03:29:47;;;;;;;1.17;0.88;;;;;;;27.34;39.53;98768.97;7396752;19;20006;-62
2023/10/18 03:32:19;;;;;;;1.10;0.88;;;;;;;27.02;40.00;98755.47;7400340;19;20077;-61
2023/10/18 03:34:46;;;;;;;0.63;0.63;;;;;;;28.07;38.69;98756.38;7398357;19;20215;-61
2023/10/18 03:37:20;;;;;;;2.05;0.75;;;;;;;28.75;37.76;98748.25;7399623;19;20363;-61
2023/10/18 03:39:53;;;;;;;3.10;1.40;;;;;;;28.96;37.19;98745.16;7399314;19;20459;-61
2023/10/18 03:42:30;;;;;;;2.92;1.45;;;;;;;28.83;37.49;98746.59;7396959;19;20094;-61
2023/10/18 03:44:58;;;;;;;1.27;0.65;;;;;;;28.74;37.38;98741.03;7396209;19;20467;-61
2023/10/18 03:47:25;;;;;;;1.98;1.08;;;;;;;27.98;38.19;98737.22;7396208;19;20011;-61
2023/10/18 03:49:54;;;;;;;3.00;0.88;;;;;;;27.17;39.34;98739.97;7399697;19;20455;-62
2023/10/18 03:52:21;;;;;;;1.63;1.15;;;;;;;26.80;40.26;98723.34;7396327;19;20015;-61
2023/10/18 03:57:28;;;;;;;0.82;0.50;;;;;;;26.78;40.19;98722.47;7396677;19;20015;-61
2023/10/18 03:59:58;;;;;;;0.95;0.60;;;;;;;25.42;42.10;98732.50;7396770;19;20351;-62
2023/10/18 04:04:57;;;;;;;0.65;0.65;;;;;;;25.42;42.56;98715.38;7396457;19;20018;-62
2023/10/18 04:07:26;;;;;;;1.40;0.70;;;;;;;24.77;43.49;98707.16;7397675;19;20038;-62
2023/10/18 04:09:54;;;;;;;0.63;0.47;;;;;;;24.86;43.51;98696.34;7397987;19;20048;-62
2023/10/18 04:12:22;;;;;;;1.65;0.90;;;;;;;24.84;43.93;98702.59;7396837;19;20095;-61
2023/10/18 04:15:00;;;;;;;0.20;0.20;;;;;;;26.02;42.06;98686.69;7400333;19;20023;-61
2023/10/18 04:17:37;;;;;;;2.38;1.17;;;;;;;27.26;40.12;98687.66;7401033;19;20028;-61
2023/10/18 04:20:12;;;;;;;1.08;0.90;;;;;;;27.70;39.61;98673.25;7397512;19;20092;-62
2023/10/18 04:22:38;;;;;;;8.88;1.30;;;;;;;30.14;37.30;98664.78;7396345;19;20021;-62
2023/10/18 04:25:17;;;;;;;1.30;0.28;;;;;;;32.32;34.25;98655.56;7399872;19;20011;-62
2023/10/18 04:27:47;;;;;;;1.42;1.33;;;;;;;28.07;38.15;98668.38;7397118;19;20029;-62
2023/10/18 04:30:16;;;;;;;0.38;0.38;;;;;;;27.90;38.58;98657.31;7396561;19;20011;-61
2023/10/18 04:32:43;;;;;;;1.00;0.65;;;;;;;29.47;36.98;98654.06;7396988;19;20024;-62
2023/10/18 04:35:10;;;;;;;0.95;0.95;;;;;;;27.85;38.70;98655.59;7399335;19;20018;-62
2023/10/18 04:37:36;;;;;;;0.30;0.30;;;;;;;27.72;38.59;98647.66;7396054;19;20015;-61
2023/10/18 04:40:06;;;;;;;1.60;0.82;;;;;;;28.57;37.86;98638.31;7396466;19;20014;-61
2023/10/18 04:42:32;;;;;;;3.80;0.80;;;;;;;30.07;35.89;98630.66;7395556;19;20364;-62
2023/10/18 04:45:02;;;;;;;3.50;0.75;;;;;;;30.20;36.31;98629.88;7399742;19;20023;-61
2023/10/18 04:47:32;;;;;;;0.57;0.57;;;;;;;30.86;35.15;98627.44;7395652;19;20015;-61
2023/10/18 04:50:04;;;;;;;0.77;0.20;;;;;;;30.81;35.00;98624.97;7395851;19;20014;-61
2023/10/18 04:52:40;;;;;;;0.45;0.45;;;;;;;31.01;34.68;98623.81;7396131;19;20014;-61
2023/10/18 04:55:11;;;;;;;0.80;0.80;;;;;;;29.96;35.86;98607.19;7395601;19;20066;-61
2023/10/18 04:57:41;;;;;;;0.70;0.60;;;;;;;28.27;37.45;98606.56;7395025;19;20047;-61
2023/10/18 05:02:58;;;;;;;1.30;1.20;;;;;;;27.95;37.92;98607.53;7397934;19;20011;-62
2023/10/18 05:05:26;;;;;;;3.40;1.40;;;;;;;28.50;37.32;98592.09;7398169;19;20007;-62
2023/10/18 05:07:54;;;;;;;1.00;0.85;;;;;;;28.32;38.02;98593.97;7395415;19;20006;-62
2023/10/18 05:10:21;;;;;;;1.35;0.90;;;;;;;27.81;38.24;98586.66;7394549;19;20015;-61
2023/10/18 05:13:01;;;;;;;3.20;1.17;;;;;;;27.94;38.22;98588.13;7394573;19;20018;-61
2023/10/18 05:15:34;;;;;;;1.70;0.77;;;;;;;29.52;36.35;98564.69;7399756;19;20511;-60
2023/10/18 05:18:15;;;;;;;0.82;0.82;;;;;;;30.86;34.74;98567.03;7394729;19;20017;-61
2023/10/18 05:20:47;;;;;;;0.85;0.85;;;;;;;29.54;36.12;98549.72;7394112;19;20015;-61
2023/10/18 05:23:22;;;;;;;2.08;1.33;;;;;;;29.27;36.30;98550.47;7394315;19;20045;-61
2023/10/18 05:26:08;;;;;;;0.82;0.82;;;;;;;28.95;36.71;98555.22;7393589;19;20355;-62
2023/10/18 05:28:47;;;;;;;4.97;1.00;;;;;;;29.87;35.90;98550.72;7391499;19;20015;-62
2023/10/18 05:31:26;;;;;;;1.20;1.10;;;;;;;30.19;35.29;98542.94;7393851;19;20064;-62
2023/10/18 05:34:02;;;;;;;4.47;1.00;;;;;;;29.57;35.75;98537.69;7398984;19;20025;-62
2023/10/18 05:36:35;;;;;;;2.17;1.40;;;;;;;29.32;36.10;98532.09;7394644;19;20006;-61
2023/10/18 05:39:18;;;;;;;1.27;1.05;;;;;;;29.31;35.84;98522.00;7394746;19;20019;-61
2023/10/18 05:41:51;;;;;;;1.63;0.90;;;;;;;30.68;34.77;98523.03;7394942;19;20561;-61
2023/10/18 05:44:17;;;;;;;5.57;1.65;;;;;;;29.47;35.46;98522.84;7395653;19;20021;-61
2023/10/18 05:46:46;;;;;;;5.78;1.17;;;;;;;29.31;35.99;98522.00;7393383;19;20408;-61
2023/10/18 05:49:15;;;;;;;1.65;1.17;;;;;;;29.36;36.01;98517.22;7393520;19;20501;-60
2023/10/18 05:51:51;;;;;;;3.95;1.42;;;;;;;29.63;35.49;98517.91;7393443;19;20062;-61
2023/10/18 05:54:19;;;;;;;2.30;0.65;;;;;;;29.78;35.30;98523.00;7395355;19;20019;-61
2023/10/18 05:56:53;;;;;;;0.70;0.70;;;;;;;29.31;36.08;98516.25;7393194;19;20048;-61
2023/10/18 06:01:58;;;;;;;2.70;0.70;;;;;;;29.89;35.40;98515.63;7393423;19;20074;-62
2023/10/18 06:04:33;;;;;;;0.95;0.95;;;;;;;29.89;35.13;98499.16;7394845;19;20343;-63
2023/10/18 06:07:04;;;;;;;0.47;0.30;;;;;;;28.40;36.91;98508.47;7393426;19;20018;-62
2023/10/18 06:09:44;;;;;;;2.92;1.20;;;;;;;28.73;36.99;98498.81;7392651;19;20349;-61
2023/10/18 06:12:13;;;;;;;1.30;0.75;;;;;;;29.56;35.95;98493.16;7391921;19;20007;-61
2023/10/18 06:14:45;;;;;;;0.47;0.47;;;;;;;30.20;35.24;98492.00;7395757;19;20367;-61
2023/10/18 06:17:19;;;;;;;1.42;1.02;;;;;;;29.69;35.68;98488.78;7396654;19;20098;-61
2023/10/18 06:19:47;;;;;;;1.23;1.13;;;;;;;29.19;35.64;98481.22;7393704;19;20013;-62
2023/10/18 06:22:29;;;;;;;1.20;0.65;;;;;;;28.61;36.70;98478.13;7392962;19;20087;-60
2023/10/18 06:24:57;;;;;;;0.50;0.50;;;;;;;28.48;36.99;98468.81;7396176;19;20324;-62
2023/10/18 06:27:24;;;;;;;2.05;1.08;;;;;;;28.93;36.85;98471.97;7393100;19;20045;-62
2023/10/18 06:29:56;;;;;;;0.82;0.82;;;;;;;29.52;35.67;98478.59;7393463;19;20062;-62
2023/10/18 06:32:22;;;;;;;0.20;0.20;;;;;;;29.67;35.63;98465.72;7394494;19;20392;-62
2023/10/18 06:34:55;;;;;;;1.25;1.10;;;;;;;29.72;35.33;98456.66;7394463;19;20070;-62
2023/10/18 06:37:23;;;;;;;1.33;0.63;;;;;;;29.97;35.25;98453.59;7392229;19;20019;-62
2023/10/18 06:39:51;;;;;;;3.10;1.45;;;;;;;29.23;36.35;98453.50;7398791;19;20063;-62
2023/10/18 06:42:18;;;;;;;1.20;0.95;;;;;;;28.91;36.37;98456.78;7399277;19;20060;-61
2023/10/18 06:44:44;;;;;;;0.10;0.10;;;;;;;29.05;36.23;98460.38;7403146;19;20010;-62
2023/10/18 06:47:13;;;;;;;0.73;0.65;;;;;;;29.37;35.69;98450.59;7400407;19;20014;-61
2023/10/18 06:49:44;;;;;;;0.65;0.50;;;;;;;29.48;35.72;98455.44;7397224;19;20006;-61
2023/10/18 06:52:14;;;;;;;0.77;0.57;;;;;;;29.36;35.67;98454.09;7397231;19;20010;-61
2023/10/18 06:54:40;;;;;;;1.33;0.75;;;;;;;29.33;35.85;98450.38;7402773;19;20018;-62
2023/10/18 06:57:15;;;;;;;1.55;0.77;;;;;;;29.18;36.01;98442.44;7398040;19;20069;-62
2023/10/18 06:59:48;;;;;;;0.25;0.25;;;;;;;30.83;34.47;98427.41;7399957;19;20390;-62
2023/10/18 07:02:14;;;;;;;0.40;0.20;;;;;;;30.95;34.49;98425.09;7400845;19;20356;-62
2023/10/18 07:05:03;;;;;;;0.40;0.40;;;;;;;30.69;34.49;98426.78;7402278;19;20006;-62
2023/10/18 07:07:27;;;;;;;0.82;0.77;;;;;;;31.35;34.06;98426.84;7397640;19;20011;-62
2023/10/18 07:09:55;;;;;;;7.15;1.13;;;;;;;32.03;33.10;98416.69;7399649;19;20031;-63
2023/10/18 07:12:26;;;;;;;2.78;1.08;;;;;;;31.70;33.14;98411.00;7396994;19;20017;-63
2023/10/18 07:14:57;;;;;;;1.75;0.50;;;;;;;30.10;34.80;98402.50;7401682;19;20010;-62
2023/10/18 07:17:26;;;;;;;1.52;0.63;;;;;;;29.35;35.83;98401.72;7402892;19;20010;-62
2023/10/18 07:19:58;;;;;;;0.60;0.45;;;;;;;29.61;35.46;98402.28;7398705;19;20025;-62
2023/10/18 07:22:39;;;;;;;0.30;0.17;;;;;;;28.67;36.47;98395.34;7396892;19;20047;-62
2023/10/18 07:25:08;;;;;;;0.15;0.15;;;;;;;30.26;35.34;98386.75;7401374;19;20088;-62
2023/10/18 07:27:39;;;;;;;0.30;0.25;;;;;;;31.00;33.91;98386.50;7399147;19;20014;-62
2023/10/18 07:30:14;;;;;;;0.35;0.35;;;;;;;31.12;34.02;98381.25;7398277;19;20030;-62
2023/10/18 07:32:41;;;;;;;9.13;0.90;;;;;;;31.32;34.07;98369.84;7398626;19;20463;-62
2023/10/18 07:35:11;;;;;;;0.20;0.20;;;;;;;32.07;33.04;98376.53;7399770;19;20006;-62
2023/10/18 07:37:43;;;;;;;0.10;0.10;;;;;;;31.27;33.63;98363.19;7400749;19;20502;-62
2023/10/18 07:40:11;;;;;;;2.10;0.90;;;;;;;29.74;35.58;98373.53;7399918;19;20035;-62
2023/10/18 07:42:43;;;;;;;0.77;0.32;;;;;;;28.86;36.06;98374.84;7399935;19;20035;-62
2023/10/18 07:45:14;;;;;;;0.32;0.32;;;;;;;29.39;36.19;98373.22;7399433;19;20057;-61
2023/10/18 07:47:40;;;;;;;;;;;;;;;28.37;37.32;98377.28;7400011;19;20018;-62
2023/10/18 07:52:54;;;;;;;0.50;0.40;;;;;;;27.62;37.90;98376.00;7401040;19;20082;-62
2023/10/18 07:55:21;;;;;;;1.48;0.15;;;;;;;27.56;38.54;98372.06;7399030;19;20014;-62
2023/10/18 07:57:48;;;;;;;2.45;0.43;;;;;;;27.70;38.36;98367.88;7399248;19;20003;-63
2023/10/18 08:00:21;;;;;;;0.35;0.35;;;;;;;27.60;38.70;98355.88;7400055;19;20007;-62
2023/10/18 08:02:50;;;;;;;0.10;0.10;;;;;;;28.16;37.85;98354.66;7400491;19;20011;-62
2023/10/18 08:05:30;;;;;;;0.20;0.20;;;;;;;30.16;35.92;98345.34;7399472;19;20010;-62
2023/10/18 08:07:57;;;;;;;0.20;0.20;;;;;;;31.21;34.70;98337.06;7400055;19;20431;-63
2023/10/18 08:10:24;;;;;;;0.20;0.20;;;;;;;31.29;34.65;98343.16;7397455;19;20452;-62
2023/10/18 08:13:09;;;;;;;0.38;0.38;;;;;;;32.31;33.67;98351.50;7399260;19;20011;-62
2023/10/18 08:15:38;;;;;;;0.35;0.35;;;;;;;32.92;32.64;98333.50;7398817;19;20039;-62
2023/10/18 08:18:17;;;;;;;5.50;0.95;;;;;;;33.07;32.66;98344.16;7398145;19;20351;-62
2023/10/18 08:23:34;;;;;;;0.17;0.17;;;;;;;33.60;31.59;98330.03;7397919;19;20069;-62
2023/10/18 08:26:04;;;;;;;3.28;1.17;;;;;;;33.78;32.00;98313.28;7401904;19;20011;-62
2023/10/18 08:28:40;;;;;;;0.45;0.45;;;;;;;34.06;31.10;98316.31;7396104;19;20378;-62
2023/10/18 08:31:34;;;;;;;1.17;1.00;;;;;;;33.49;31.90;98308.00;7395800;19;20030;-62
2023/10/18 08:34:15;;;;;;;0.75;0.40;;;;;;;33.38;32.13;98303.31;7401090;19;20063;-62
2023/10/18 08:36:44;;;;;;;0.63;0.63;;;;;;;33.27;32.06;98304.41;7396009;19;20650;-63
2023/10/18 08:39:11;;;;;;;0.35;0.25;;;;;;;34.15;31.46;98300.69;7396507;19;20018;-62
2023/10/18 08:42:12;;;;;;;0.55;0.38;;;;;;;33.63;31.57;98281.75;7395303;19;20090;-61
2023/10/18 08:44:39;;;;;;;0.22;0.20;;;;;;;33.73;31.58;98276.28;7396948;19;20025;-62
2023/10/18 08:49:56;;;;;;;0.50;0.50;;;;;;;34.95;30.68;98264.56;7393022;19;20483;-62
2023/10/18 08:52:31;;;;;;;0.43;0.25;;;;;;;34.69;30.67;98255.22;7392747;19;20459;-63
2023/10/18 08:55:19;;;;;;;1.38;1.27;;;;;;;34.89;30.22;98252.84;7398352;19;20025;-62
2023/10/18 08:57:46;;;;;;;0.30;0.30;;;;;;;34.15;30.68;98248.66;7394610;19;20031;-62
2023/10/18 09:03:03;;;;;;;1.17;0.93;;;;;;;35.52;29.75;98221.06;7392789;19;20021;-62
2023/10/18 09:05:30;;;;;;;1.00;0.47;;;;;;;36.08;29.44;98223.72;7398848;19;20010;-62
2023/10/18 09:08:03;;;;;;;0.55;0.40;;;;;;;35.78;29.55;98204.25;7394307;19;20010;-62
2023/10/18 09:13:33;;;;;;;0.65;0.40;;;;;;;36.28;28.85;98215.41;7395841;19;20025;-62
2023/10/18 09:15:55;;;;;;;0.20;0.10;;;;;;;36.62;28.63;98198.66;7395482;19;20501;-62
2023/10/18 09:18:22;;;;;;;0.20;0.13;;;;;;;36.37;28.95;98202.53;7394437;19;20014;-63
2023/10/18 09:20:49;;;;;;;5.00;0.75;;;;;;;36.36;29.03;98186.56;7394082;19;20032;-63
2023/10/18 09:23:22;;;;;;;0.10;0.08;;;;;;;36.57;29.10;98191.31;7394039;19;20014;-62
2023/10/18 09:26:00;;;;;;;0.10;0.10;;;;;;;36.67;29.00;98194.38;7398700;19;20015;-62
2023/10/18 09:28:30;;;;;;;0.30;0.30;;;;;;;36.41;28.92;98167.78;7395134;19;20015;-62
2023/10/18 09:31:02;;;;;;;1.65;0.47;;;;;;;36.93;28.87;98177.44;7394176;19;20022;-62
2023/10/18 09:33:32;;;;;;;0.15;0.15;;;;;;;37.37;28.16;98150.50;7397683;19;20018;-63
2023/10/18 09:36:02;;;;;;;0.63;0.23;;;;;;;37.79;28.24;98154.66;7393640;19;20006;-63
2023/10/18 09:38:39;;;;;;;2.37;0.90;;;;;;;37.93;27.92;98154.13;7393846;19;20010;-62
2023/10/18 09:41:05;;;;;;;0.10;0.10;;;;;;;38.02;27.70;98152.78;7394211;19;20014;-62
2023/10/18 09:43:38;;;;;;;0.22;0.22;;;;;;;38.01;27.55;98133.16;7393786;19;20011;-62
2023/10/18 09:46:05;;;;;;;0.20;0.20;;;;;;;38.06;27.98;98117.94;7394030;19;20048;-62
2023/10/18 09:48:33;;;;;;;1.40;0.75;;;;;;;37.99;27.77;98130.22;7393619;19;20054;-61
2023/10/18 09:51:06;;;;;;;1.27;0.38;;;;;;;37.92;28.12;98114.88;7393482;19;20010;-61
2023/10/18 09:53:42;;;;;;;0.75;0.40;;;;;;;37.99;27.79;98101.84;7393209;19;20351;-62
2023/10/18 09:56:13;;;;;;;0.30;0.25;;;;;;;38.38;27.55;98106.63;7393112;19;20471;-62
2023/10/18 09:58:44;;;;;;;0.10;0.08;;;;;;;38.63;27.17;98102.47;7392891;19;20455;-62
2023/10/18 10:01:14;;;;;;;1.20;0.32;;;;;;;38.54;27.29;98103.84;7392714;19;20070;-62
2023/10/18 10:03:56;;;;;;;;;;;;;;;38.57;27.08;98093.66;7397297;19;20030;-62
2023/10/18 10:06:28;;;;;;;0.98;0.43;;;;;;;38.16;27.10;98091.88;7393747;19;20328;-62
2023/10/18 10:09:11;;;;;;;0.30;0.30;;;;;;;38.00;27.60;98079.34;7393804;19;20007;-62
2023/10/18 10:11:45;;;;;;;0.70;0.52;;;;;;;38.43;27.35;98066.66;7392556;19;20369;-62
2023/10/18 10:14:16;;;;;;;12.05;1.52;;;;;;;38.50;27.42;98065.25;7392637;19;20441;-63
2023/10/18 10:16:52;;;;;;;;;;;;;;;38.30;27.14;98062.91;7393905;19;20011;-62
2023/10/18 10:19:25;;;;;;;0.10;0.10;;;;;;;38.15;27.46;98058.41;7391591;19;20336;-62
2023/10/18 10:21:54;;;;;;;0.90;0.25;;;;;;;38.27;27.70;98054.91;7391972;19;20013;-62
2023/10/18 10:24:33;;;;;;;0.32;0.32;;;;;;;38.53;27.68;98049.28;7393138;19;20382;-62
2023/10/18 10:27:27;;;;;;;0.15;0.15;;;;;;;38.88;27.36;98026.97;7393238;19;20364;-62
2023/10/18 10:32:46;;;;;;;0.10;0.10;;;;;;;39.13;26.65;98040.22;7394459;19;20051;-62
2023/10/18 10:35:19;;;;;;;0.10;0.10;;;;;;;39.06;26.82;98035.78;7394959;19;20020;-61
2023/10/18 10:37:53;;;;;;;0.55;0.52;;;;;;;39.06;26.77;98021.22;7389908;19;20011;-62
2023/10/18 10:43:04;;;;;;;2.38;0.80;;;;;;;38.83;26.80;98022.56;7391696;19;20034;-61
2023/10/18 10:50:52;;;;;;;0.73;0.30;;;;;;;39.74;26.18;98015.66;7389666;19;20010;-62
2023/10/18 10:53:35;;;;;;;5.38;0.95;;;;;;;39.92;26.14;97994.53;7390505;19;20014;-62
2023/10/18 10:56:16;;;;;;;0.35;0.25;;;;;;;40.02;26.34;97994.56;7394157;19;20035;-61
2023/10/18 10:58:55;;;;;;;2.17;1.17;;;;;;;40.06;26.17;97995.31;7392704;19;20035;-62
2023/10/18 11:01:43;;;;;;;0.20;0.20;;;;;;;39.93;26.01;97987.97;7389907;19;20078;-62
2023/10/18 11:04:15;;;;;;;0.22;0.22;;;;;;;40.02;26.44;97968.31;7394183;19;20022;-62
2023/10/18 11:06:45;;;;;;;0.20;0.20;;;;;;;40.00;26.87;97957.38;7390134;19;20478;-62
2023/10/18 11:09:15;;;;;;;0.75;0.55;;;;;;;40.05;26.52;97947.16;7393706;19;20006;-61
2023/10/18 11:11:45;;;;;;;1.23;0.60;;;;;;;40.14;26.90;97947.88;7387611;19;20040;-62
2023/10/18 11:14:18;;;;;;;0.73;0.30;;;;;;;40.81;26.07;97934.59;7389417;19;20056;-62
2023/10/18 11:16:53;;;;;;;0.40;0.30;;;;;;;41.21;26.17;97933.72;7389930;19;20007;-62
2023/10/18 11:19:28;;;;;;;0.30;0.20;;;;;;;41.20;26.03;97925.66;7393761;19;20018;-62
2023/10/18 11:21:58;;;;;;;0.25;0.25;;;;;;;41.22;25.80;97923.47;7389484;19;20049;-62
2023/10/18 11:24:25;;;;;;;1.85;0.20;;;;;;;41.38;25.51;97905.88;7389023;19;20078;-62
2023/10/18 11:26:51;;;;;;;2.17;0.65;;;;;;;41.12;25.82;97908.94;7393192;19;20014;-62
2023/10/18 11:29:24;;;;;;;0.30;0.20;;;;;;;40.73;26.02;97901.78;7400082;19;20018;-63
2023/10/18 11:31:55;;;;;;;0.10;0.10;;;;;;;40.62;25.82;97883.59;7398018;19;20496;-62
2023/10/18 11:34:25;;;;;;;3.50;0.57;;;;;;;40.74;25.97;97868.94;7396897;19;20018;-63
2023/10/18 11:36:54;;;;;;;0.93;0.30;;;;;;;40.60;25.95;97868.28;7396269;19;20107;-63
2023/10/18 11:39:24;;;;;;;0.60;0.50;;;;;;;40.62;25.78;97859.50;7399688;19;20474;-62
2023/10/18 11:41:53;;;;;;;0.68;0.30;;;;;;;40.48;26.17;97853.75;7395090;19;20010;-63
2023/10/18 11:44:34;;;;;;;0.73;0.40;;;;;;;38.64;27.41;97830.34;7398827;19;20029;-62
2023/10/18 11:47:20;;;;;;;6.85;0.30;;;;;;;38.94;27.25;97850.09;7396683;19;20006;-56
2023/10/18 11:49:53;;;;;;;0.10;0.10;;;;;;;39.51;27.18;97821.03;7395766;19;20525;-57
2023/10/18 11:52:22;;;;;;;0.60;0.20;;;;;;;39.67;26.96;97839.28;7397306;19;20488;-56
2023/10/18 11:54:55;;;;;;;;;;;;;;;40.28;26.65;97807.09;7399013;19;20019;-52
2023/10/18 11:57:40;;;;;;;2.08;0.82;;;;;;;40.08;26.32;97799.88;7394351;19;20375;-52
2023/10/18 12:03:01;;;;;;;1.33;0.55;;;;;;;40.13;26.55;97795.47;7398466;19;20014;-52
2023/10/18 12:05:29;;;;;;;0.35;0.17;;;;;;;40.21;26.35;97799.81;7396039;19;20463;-51
2023/10/18 12:08:05;;;;;;;0.57;0.45;;;;;;;40.06;26.43;97779.47;7399457;19;20043;-52
2023/10/18 12:10:35;;;;;;;0.65;0.52;;;;;;;39.12;27.27;97788.25;7393668;19;20018;-54
2023/10/18 12:13:07;;;;;;;0.90;0.22;;;;;;;40.20;26.39;97775.03;7393256;19;20013;-53
2023/10/18 12:15:39;;;;;;;2.28;0.85;;;;;;;40.07;26.44;97766.31;7396972;19;20021;-53
2023/10/18 12:18:23;;;;;;;1.20;0.50;;;;;;;39.87;26.49;97760.53;7397450;19;20017;-54
2023/10/18 12:20:56;;;;;;;1.10;0.55;;;;;;;39.78;27.00;97750.38;7394504;19;20015;-51
2023/10/18 12:23:22;;;;;;;0.65;0.45;;;;;;;39.84;26.48;97740.88;7396592;19;20019;-54
2023/10/18 12:25:50;;;;;;;0.22;0.22;;;;;;;39.83;27.13;97737.22;7399357;19;20410;-54
2023/10/18 12:28:27;;;;;;;0.45;0.30;;;;;;;39.93;26.71;97737.19;7396051;19;20010;-59
2023/10/18 12:30:55;;;;;;;0.90;0.30;;;;;;;39.78;26.98;97738.72;7394952;19;20014;-58
2023/10/18 12:33:51;;;;;;;1.42;1.02;;;;;;;39.64;27.20;97730.00;7396164;19;20019;-60
2023/10/18 12:36:39;;;;;;;0.10;0.10;;;;;;;39.56;27.04;97724.19;7395542;19;20029;-82
2023/10/18 12:39:09;;;;;;;0.35;0.20;;;;;;;39.57;27.19;97711.06;7391713;19;20077;-81
2023/10/18 12:41:39;;;;;;;0.45;0.20;;;;;;;39.60;27.03;97700.84;7386473;19;20026;-81
2023/10/18 12:44:17;;;;;;;0.30;0.10;;;;;;;39.65;27.14;97698.66;7392154;19;20015;-82